Time;durP1;ratioP1;P1;durP2;ratioP2;P2;SDS_P1;SDS_P2;PMS_P1;PMS_P2;Temp;Humidity;BMP_temperature;BMP_pressure;BME280_temperature;BME280_humidity;BME280_pressure;Samples;Min_cycle;Max_cycle;Signal;HPM_P1;HPM_P2
2022/04/01 00:02:20;;;;;;;3.97;2.15;;;5.30;39.90;;;;;;5059608;28;20052;-72
2022/04/01 00:04:46;;;;;;;5.25;2.00;;;5.40;39.60;;;;;;5064365;28;20067;-72
2022/04/01 00:07:12;;;;;;;8.48;2.17;;;5.40;38.80;;;;;;5065233;28;20040;-72
2022/04/01 00:09:38;;;;;;;4.07;2.15;;;5.40;38.60;;;;;;5063293;28;20074;-72
2022/04/01 00:12:05;;;;;;;5.00;2.13;;;5.40;38.10;;;;;;5062167;28;20392;-71
2022/04/01 00:14:31;;;;;;;3.78;2.00;;;5.40;38.30;;;;;;5038489;28;20857;-72
2022/04/01 00:16:57;;;;;;;5.45;2.20;;;5.50;37.60;;;;;;5060136;28;20032;-71
2022/04/01 00:19:24;;;;;;;6.22;2.08;;;5.50;37.20;;;;;;5042540;28;20107;-72
2022/04/01 00:21:49;;;;;;;3.42;2.08;;;5.50;37.40;;;;;;5041928;28;20092;-70
2022/04/01 00:24:15;;;;;;;4.38;2.28;;;5.60;37.10;;;;;;5045205;28;20907;-72
2022/04/01 00:26:41;;;;;;;5.95;1.90;;;5.70;37.10;;;;;;5054113;28;20039;-71
2022/04/01 00:29:15;;;;;;;5.03;2.03;;;5.80;38.00;;;;;;5052454;28;20557;-71
2022/04/01 00:31:44;;;;;;;6.13;2.38;;;5.80;37.10;;;;;;5055665;28;20038;-72
2022/04/01 00:34:17;;;;;;;3.65;1.95;;;5.80;37.90;;;;;;5043651;28;20029;-71
2022/04/01 00:36:48;;;;;;;6.22;2.15;;;5.70;38.30;;;;;;5060725;28;20505;-72
2022/04/01 00:39:16;;;;;;;7.38;2.72;;;5.70;38.10;;;;;;5061778;28;20037;-72
2022/04/01 00:41:44;;;;;;;3.67;2.08;;;5.80;38.10;;;;;;5062794;28;20620;-72
2022/04/01 00:44:19;;;;;;;4.90;2.17;;;5.80;40.00;;;;;;5041408;28;20046;-71
2022/04/01 00:46:50;;;;;;;5.35;2.60;;;5.70;39.70;;;;;;5057086;28;20052;-72
2022/04/01 00:49:17;;;;;;;4.78;2.30;;;5.60;39.30;;;;;;5058160;28;20032;-71
2022/04/01 00:51:45;;;;;;;6.78;2.90;;;5.50;39.50;;;;;;5025335;28;20036;-72
2022/04/01 00:54:11;;;;;;;7.07;2.70;;;5.40;40.20;;;;;;5040515;28;20025;-71
2022/04/01 00:56:38;;;;;;;4.05;2.10;;;5.30;39.80;;;;;;5060791;28;20078;-71
2022/04/01 00:59:06;;;;;;;8.90;2.97;;;5.30;40.30;;;;;;5062180;28;20051;-72
2022/04/01 01:01:34;;;;;;;4.00;2.35;;;5.20;40.50;;;;;;5042425;28;20025;-72
2022/04/01 01:04:07;;;;;;;11.07;2.80;;;5.10;40.80;;;;;;5053462;28;20088;-72
2022/04/01 01:06:37;;;;;;;5.38;3.00;;;5.20;40.90;;;;;;5056535;28;20033;-71
2022/04/01 01:09:03;;;;;;;4.57;2.22;;;5.10;40.60;;;;;;5036886;28;20127;-71
2022/04/01 01:11:31;;;;;;;6.38;2.40;;;5.20;40.90;;;;;;5043314;28;20166;-72
2022/04/01 01:13:57;;;;;;;5.43;2.15;;;5.20;40.80;;;;;;5043051;28;20622;-72
2022/04/01 01:16:23;;;;;;;4.03;2.30;;;5.20;41.40;;;;;;5051566;28;20020;-73
2022/04/01 01:19:05;;;;;;;6.45;2.25;;;5.20;41.00;;;;;;5043313;28;20032;-71
2022/04/01 01:21:32;;;;;;;4.10;2.17;;;5.20;41.00;;;;;;5039629;28;20124;-72
2022/04/01 01:24:04;;;;;;;4.40;2.40;;;5.10;41.00;;;;;;5056454;28;20059;-71
2022/04/01 01:26:31;;;;;;;5.85;2.45;;;5.20;40.70;;;;;;5054703;28;20045;-72
2022/04/01 01:28:58;;;;;;;6.07;2.53;;;5.20;40.80;;;;;;5042341;28;20047;-71
2022/04/01 01:31:25;;;;;;;8.10;2.50;;;5.10;40.90;;;;;;5044215;28;20033;-71
2022/04/01 01:33:53;;;;;;;4.40;2.50;;;5.10;40.90;;;;;;5058644;28;20074;-71
2022/04/01 01:36:19;;;;;;;5.28;2.60;;;5.00;41.30;;;;;;5040785;28;20028;-71
2022/04/01 01:38:44;;;;;;;5.75;2.80;;;4.90;41.10;;;;;;5058456;28;20029;-71
2022/04/01 01:41:10;;;;;;;7.65;2.30;;;4.90;41.00;;;;;;5056470;28;20404;-71
2022/04/01 01:43:36;;;;;;;6.22;2.47;;;4.90;41.80;;;;;;5037831;28;20085;-71
2022/04/01 01:46:03;;;;;;;5.28;2.22;;;4.90;41.30;;;;;;5049104;28;20029;-72
2022/04/01 01:48:29;;;;;;;6.57;2.65;;;4.90;41.80;;;;;;5037680;28;20032;-72
2022/04/01 01:56:23;;;;;;;5.43;2.08;;;4.90;41.10;;;;;;5061336;28;20036;-71
2022/04/01 01:58:57;;;;;;;4.15;2.22;;;4.80;41.90;;;;;;5039847;28;20043;-72
2022/04/01 02:01:24;;;;;;;6.38;2.30;;;4.80;42.30;;;;;;5042112;28;20032;-70
2022/04/01 02:03:51;;;;;;;5.82;2.78;;;4.80;42.80;;;;;;5058359;28;20036;-71
2022/04/01 02:06:21;;;;;;;5.68;2.30;;;4.70;42.80;;;;;;5055188;28;20665;-71
2022/04/01 02:08:50;;;;;;;7.18;2.00;;;4.70;43.40;;;;;;5044041;28;20526;-72
2022/04/01 02:11:17;;;;;;;3.75;2.20;;;4.70;43.20;;;;;;5059409;28;20036;-71
2022/04/01 02:13:45;;;;;;;4.13;2.17;;;4.60;44.00;;;;;;5028084;28;20094;-73
2022/04/01 02:16:13;;;;;;;4.72;2.15;;;4.60;44.60;;;;;;5031476;28;20020;-71
2022/04/01 02:18:41;;;;;;;4.80;2.22;;;4.50;45.20;;;;;;5043816;28;20378;-71
2022/04/01 02:21:10;;;;;;;5.70;2.05;;;4.40;44.80;;;;;;5033218;28;20032;-72
2022/04/01 02:23:40;;;;;;;5.55;2.20;;;4.40;45.10;;;;;;5054600;28;20028;-73
2022/04/01 02:26:08;;;;;;;3.70;2.10;;;4.30;45.20;;;;;;5026566;28;20024;-71
2022/04/01 02:28:37;;;;;;;3.70;2.17;;;4.40;45.20;;;;;;5045560;28;20028;-70
2022/04/01 02:31:05;;;;;;;4.07;2.45;;;4.20;45.30;;;;;;5044019;28;20024;-72
2022/04/01 02:33:49;;;;;;;6.85;2.42;;;4.10;45.50;;;;;;5059894;28;20146;-71
2022/04/01 02:36:15;;;;;;;3.83;2.20;;;4.10;45.40;;;;;;5038765;28;20505;-70
2022/04/01 02:38:42;;;;;;;5.15;2.50;;;4.20;45.40;;;;;;5036545;28;20036;-70
2022/04/01 02:41:13;;;;;;;4.43;2.88;;;4.30;44.10;;;;;;5035717;28;20025;-71
2022/04/01 02:43:40;;;;;;;3.53;2.08;;;4.30;43.90;;;;;;5045086;28;20036;-71
2022/04/01 02:46:07;;;;;;;5.25;2.58;;;4.30;43.50;;;;;;5034922;28;20043;-72
2022/04/01 02:48:43;;;;;;;8.52;2.33;;;4.30;42.90;;;;;;5042321;28;20764;-71
2022/04/01 02:51:21;;;;;;;5.05;2.08;;;4.30;43.20;;;;;;5060419;28;20539;-72
2022/04/01 02:53:49;;;;;;;6.88;2.53;;;4.30;42.90;;;;;;5041435;28;20078;-71
2022/04/01 02:56:15;;;;;;;4.95;2.85;;;4.30;42.80;;;;;;5037545;28;20025;-71
2022/04/01 02:58:40;;;;;;;3.65;1.95;;;4.20;42.80;;;;;;5046498;28;20691;-72
2022/04/01 03:01:06;;;;;;;5.25;2.30;;;4.30;43.00;;;;;;5038111;28;20032;-72
2022/04/01 03:03:32;;;;;;;4.07;2.53;;;4.30;42.40;;;;;;5049665;28;20036;-70
2022/04/01 03:06:00;;;;;;;6.55;2.45;;;4.20;42.80;;;;;;5040015;28;20155;-72
2022/04/01 03:08:26;;;;;;;5.22;2.70;;;4.20;43.10;;;;;;5041319;28;20263;-70
2022/04/01 03:10:54;;;;;;;5.25;3.00;;;4.10;43.30;;;;;;5040709;28;20567;-72
2022/04/01 03:13:19;;;;;;;4.60;2.80;;;4.10;42.70;;;;;;5042167;28;20036;-70
2022/04/01 03:16:04;;;;;;;4.07;2.50;;;4.00;43.60;;;;;;5053546;28;20447;-72
2022/04/01 03:18:44;;;;;;;4.38;2.25;;;4.00;43.60;;;;;;5042696;28;20097;-71
2022/04/01 03:21:11;;;;;;;9.80;2.25;;;4.00;44.60;;;;;;5036875;28;20028;-70
2022/04/01 03:23:43;;;;;;;4.93;2.30;;;4.00;43.80;;;;;;5034495;28;20056;-71
2022/04/01 03:26:12;;;;;;;5.25;2.35;;;3.90;43.00;;;;;;5039010;28;20100;-71
2022/04/01 03:28:46;;;;;;;8.50;3.15;;;3.90;43.50;;;;;;5045929;28;20198;-71
2022/04/01 03:31:14;;;;;;;4.45;2.47;;;3.80;43.30;;;;;;5057999;28;20036;-71
2022/04/01 03:33:43;;;;;;;6.65;3.55;;;3.80;44.00;;;;;;5051522;28;20029;-70
2022/04/01 03:36:10;;;;;;;7.60;3.33;;;3.80;43.40;;;;;;5041761;28;20025;-72
2022/04/01 03:38:41;;;;;;;10.25;3.08;;;3.80;43.60;;;;;;5042549;28;20051;-71
2022/04/01 03:41:14;;;;;;;4.30;2.63;;;3.70;43.30;;;;;;5056162;28;20029;-71
2022/04/01 03:43:40;;;;;;;4.25;2.25;;;3.70;43.60;;;;;;5049291;28;20036;-72
2022/04/01 03:46:11;;;;;;;5.90;2.80;;;3.60;43.80;;;;;;5040512;28;20553;-72
2022/04/01 03:48:44;;;;;;;5.72;3.03;;;3.70;44.30;;;;;;5027702;28;20036;-72
2022/04/01 03:51:16;;;;;;;6.05;2.63;;;3.70;43.80;;;;;;5052372;28;20028;-71
2022/04/01 03:53:52;;;;;;;3.92;2.53;;;3.60;43.90;;;;;;5061361;28;20037;-72
2022/04/01 03:56:28;;;;;;;7.47;2.95;;;3.70;44.20;;;;;;5041960;28;20028;-72
2022/04/01 03:59:14;;;;;;;4.85;2.78;;;3.70;44.10;;;;;;5058872;28;20052;-71
2022/04/01 04:02:00;;;;;;;4.90;2.83;;;3.60;44.20;;;;;;5061433;28;20043;-71
2022/04/01 04:04:26;;;;;;;6.53;2.70;;;3.60;44.20;;;;;;5048194;28;20106;-71
2022/04/01 04:06:53;;;;;;;5.45;3.03;;;3.50;44.20;;;;;;5027117;28;20079;-71
2022/04/01 04:09:21;;;;;;;4.20;2.40;;;3.60;44.70;;;;;;5059748;28;20059;-71
2022/04/01 04:11:47;;;;;;;3.70;2.55;;;3.60;44.40;;;;;;5041697;28;20030;-72
2022/04/01 04:14:27;;;;;;;8.00;2.80;;;3.50;44.30;;;;;;5049472;28;20673;-71
2022/04/01 04:16:56;;;;;;;6.60;2.42;;;3.60;44.30;;;;;;5043123;28;20085;-71
2022/04/01 04:19:53;;;;;;;10.05;2.88;;;3.60;44.20;;;;;;5060520;28;20044;-70
2022/04/01 04:22:29;;;;;;;5.50;2.38;;;3.60;44.20;;;;;;5041921;28;20028;-71
2022/04/01 04:25:04;;;;;;;6.53;2.83;;;3.60;44.00;;;;;;5045465;28;20040;-71
2022/04/01 04:27:34;;;;;;;5.00;2.83;;;3.50;44.70;;;;;;5046196;28;20408;-71
2022/04/01 04:30:09;;;;;;;6.65;2.80;;;3.50;44.30;;;;;;5042825;28;20079;-70
2022/04/01 04:32:56;;;;;;;4.15;2.42;;;3.50;44.40;;;;;;5048462;28;20064;-71
2022/04/01 04:35:28;;;;;;;6.55;2.92;;;3.50;44.10;;;;;;5042738;28;20532;-71
2022/04/01 04:37:57;;;;;;;7.07;3.00;;;3.50;44.20;;;;;;5041485;28;20506;-70
2022/04/01 04:40:23;;;;;;;7.30;3.15;;;3.50;44.10;;;;;;5039324;28;20032;-71
2022/04/01 04:43:05;;;;;;;4.47;2.60;;;3.50;44.30;;;;;;5043200;28;20078;-71
2022/04/01 04:45:31;;;;;;;4.95;2.95;;;3.50;44.60;;;;;;5043658;28;20147;-71
2022/04/01 04:48:01;;;;;;;5.15;2.85;;;3.50;44.70;;;;;;5037360;28;20036;-70
2022/04/01 04:50:27;;;;;;;5.80;2.83;;;3.50;44.40;;;;;;5043230;28;20124;-71
2022/04/01 04:52:55;;;;;;;4.90;2.67;;;3.50;44.60;;;;;;5043593;28;20051;-71
2022/04/01 04:55:23;;;;;;;3.58;2.63;;;3.40;44.30;;;;;;5052939;28;20037;-71
2022/04/01 04:58:01;;;;;;;6.63;2.97;;;3.40;44.90;;;;;;5039957;28;20044;-70
2022/04/01 05:00:27;;;;;;;4.28;2.63;;;3.40;45.60;;;;;;5044670;28;20040;-71
2022/04/01 05:03:13;;;;;;;4.55;2.78;;;3.40;44.90;;;;;;5057211;28;20029;-71
2022/04/01 05:05:43;;;;;;;8.93;3.42;;;3.40;44.80;;;;;;5060094;28;20025;-71
2022/04/01 05:08:58;;;;;;;7.88;2.78;;;3.40;44.80;;;;;;5050311;28;20405;-71
2022/04/01 05:12:03;;;;;;;6.47;2.80;;;3.40;44.90;;;;;;5057102;28;20032;-71
2022/04/01 05:15:08;;;;;;;4.57;2.50;;;3.50;45.10;;;;;;5042278;28;20710;-71
2022/04/01 05:17:37;;;;;;;3.45;2.03;;;3.40;45.20;;;;;;5059159;28;20112;-71
2022/04/01 05:20:11;;;;;;;3.42;2.38;;;3.40;45.10;;;;;;5049461;28;20404;-71
2022/04/01 05:22:58;;;;;;;6.95;2.75;;;3.50;45.60;;;;;;5043613;28;20458;-71
2022/04/01 05:25:30;;;;;;;4.85;2.50;;;3.40;45.20;;;;;;5049926;28;20041;-71
2022/04/01 05:28:02;;;;;;;5.90;2.75;;;3.40;45.60;;;;;;5037187;28;20080;-71
2022/04/01 05:30:39;;;;;;;5.53;2.60;;;3.30;46.00;;;;;;5042018;28;20044;-71
2022/04/01 05:33:14;;;;;;;7.65;2.58;;;3.40;46.30;;;;;;5056840;28;20039;-71
2022/04/01 05:35:43;;;;;;;8.13;2.80;;;3.50;46.50;;;;;;5058210;28;20040;-70
2022/04/01 05:38:11;;;;;;;4.28;2.40;;;3.50;45.20;;;;;;5045489;28;20750;-70
2022/04/01 05:40:39;;;;;;;5.68;2.90;;;3.50;45.80;;;;;;5042751;28;20508;-70
2022/04/01 05:43:07;;;;;;;5.72;2.30;;;3.60;45.90;;;;;;5037504;28;20025;-70
2022/04/01 05:45:33;;;;;;;10.23;2.83;;;3.60;45.90;;;;;;5057503;28;20044;-70
2022/04/01 05:48:01;;;;;;;7.18;2.40;;;3.70;45.70;;;;;;5041747;28;20036;-71
2022/04/01 05:50:28;;;;;;;7.45;2.22;;;3.80;45.70;;;;;;5039277;28;20029;-71
2022/04/01 05:52:55;;;;;;;6.15;2.53;;;3.90;45.10;;;;;;5047119;28;20474;-71
2022/04/01 05:55:26;;;;;;;5.82;2.40;;;3.90;45.20;;;;;;5041302;28;20705;-70
2022/04/01 05:57:54;;;;;;;5.70;2.33;;;3.90;45.00;;;;;;5056902;28;20447;-71
2022/04/01 06:00:21;;;;;;;9.35;2.42;;;3.90;45.10;;;;;;5043158;28;20033;-70
2022/04/01 06:02:59;;;;;;;5.13;2.25;;;3.90;45.20;;;;;;5043755;28;20454;-70
2022/04/01 06:05:31;;;;;;;7.35;2.70;;;3.90;44.80;;;;;;5026868;28;20067;-70
2022/04/01 06:08:25;;;;;;;4.47;1.95;;;3.90;44.90;;;;;;5053557;28;20056;-70
2022/04/01 06:11:25;;;;;;;3.13;2.25;;;4.10;45.20;;;;;;5039123;28;20037;-70
2022/04/01 06:14:16;;;;;;;4.35;2.30;;;4.30;44.70;;;;;;5058779;28;20055;-70
2022/04/01 06:17:15;;;;;;;6.15;2.35;;;4.40;44.40;;;;;;5052125;28;20887;-72
2022/04/01 06:19:45;;;;;;;4.95;2.20;;;4.40;44.20;;;;;;5036993;28;20032;-72
2022/04/01 06:22:20;;;;;;;8.30;2.92;;;4.40;44.10;;;;;;5043282;28;20017;-72
2022/04/01 06:25:13;;;;;;;4.88;2.15;;;4.50;44.00;;;;;;5038696;28;20036;-72
2022/04/01 06:27:54;;;;;;;4.82;2.05;;;4.60;44.20;;;;;;5058683;28;20723;-72
2022/04/01 06:30:22;;;;;;;5.53;2.38;;;4.70;43.80;;;;;;5057445;28;20101;-71
2022/04/01 06:33:11;;;;;;;6.60;2.28;;;4.80;44.40;;;;;;5044047;28;20575;-72
2022/04/01 06:35:56;;;;;;;4.60;2.47;;;5.10;43.70;;;;;;5057479;28;20047;-72
2022/04/01 06:38:44;;;;;;;6.03;2.38;;;5.30;43.80;;;;;;5039634;28;20456;-72
2022/04/01 06:41:17;;;;;;;3.95;1.92;;;5.40;43.00;;;;;;5045361;28;20020;-71
2022/04/01 06:44:10;;;;;;;6.20;2.17;;;5.60;42.50;;;;;;5039689;28;20032;-73
2022/04/01 06:46:54;;;;;;;3.97;2.08;;;5.60;41.90;;;;;;5052259;28;20051;-73
2022/04/01 06:49:23;;;;;;;7.30;2.25;;;5.60;42.40;;;;;;5041246;28;20477;-72
2022/04/01 06:52:26;;;;;;;5.25;2.08;;;5.40;41.70;;;;;;5058530;28;20119;-72
2022/04/01 06:55:30;;;;;;;4.82;2.38;;;5.00;42.70;;;;;;5055999;28;20040;-72
2022/04/01 06:58:01;;;;;;;2.88;2.53;;;5.20;43.20;;;;;;5041657;28;20051;-73
2022/04/01 07:00:34;;;;;;;3.45;2.28;;;5.30;42.50;;;;;;5042183;28;20660;-72
2022/04/01 07:03:00;;;;;;;6.05;2.08;;;5.50;42.70;;;;;;5054900;28;20043;-72
2022/04/01 07:05:26;;;;;;;6.13;2.00;;;5.70;42.10;;;;;;5058240;28;20032;-73
2022/04/01 07:07:52;;;;;;;4.18;2.40;;;5.80;41.70;;;;;;5039911;28;20028;-72
2022/04/01 07:10:17;;;;;;;4.55;1.88;;;6.00;41.70;;;;;;5058711;28;20139;-72
2022/04/01 07:12:43;;;;;;;5.32;2.30;;;6.10;41.30;;;;;;5058653;28;20912;-73
2022/04/01 07:15:10;;;;;;;6.00;2.00;;;6.00;40.60;;;;;;5055961;28;20059;-72
2022/04/01 07:17:36;;;;;;;5.82;2.50;;;5.90;41.20;;;;;;5056829;28;20140;-70
2022/04/01 07:20:03;;;;;;;3.33;1.77;;;6.10;41.30;;;;;;5051623;28;20917;-72
2022/04/01 07:22:29;;;;;;;4.80;1.95;;;6.30;41.30;;;;;;5059487;28;20128;-73
2022/04/01 07:24:55;;;;;;;5.72;1.85;;;6.50;40.50;;;;;;5038917;28;20941;-73
2022/04/01 07:27:21;;;;;;;6.70;2.33;;;6.70;40.30;;;;;;5040240;28;20385;-73
2022/04/01 07:29:47;;;;;;;2.95;1.75;;;6.70;40.10;;;;;;5059667;28;20902;-72
2022/04/01 07:32:32;;;;;;;3.13;1.60;;;6.90;40.10;;;;;;5058755;28;20042;-73
2022/04/01 07:35:09;;;;;;;4.57;1.95;;;6.90;39.40;;;;;;5055930;28;20432;-73
2022/04/01 07:37:36;;;;;;;6.97;2.00;;;6.80;39.50;;;;;;5055129;28;20032;-73
2022/04/01 07:40:03;;;;;;;6.28;2.35;;;6.70;39.60;;;;;;5038766;28;20043;-72
2022/04/01 07:42:29;;;;;;;4.32;2.10;;;6.80;39.90;;;;;;5057324;28;20055;-72
2022/04/01 07:44:55;;;;;;;6.85;1.95;;;7.20;39.50;;;;;;5056380;28;20276;-70
2022/04/01 07:47:21;;;;;;;3.88;1.80;;;7.60;38.90;;;;;;5060212;28;20040;-71
2022/04/01 07:49:49;;;;;;;2.25;1.77;;;7.70;38.00;;;;;;5054481;28;20555;-71
2022/04/01 07:52:17;;;;;;;3.60;2.15;;;7.90;37.80;;;;;;5058628;28;20109;-71
2022/04/01 07:54:43;;;;;;;2.80;1.80;;;7.90;37.90;;;;;;5057358;28;20048;-71
2022/04/01 07:57:12;;;;;;;3.72;1.73;;;7.90;37.10;;;;;;5056227;28;20055;-70
2022/04/01 07:59:38;;;;;;;3.78;1.85;;;7.80;37.10;;;;;;5057500;28;20799;-72
2022/04/01 08:02:04;;;;;;;3.65;1.90;;;7.80;36.80;;;;;;5055399;28;20025;-72
2022/04/01 08:04:30;;;;;;;5.95;2.03;;;8.10;37.80;;;;;;5055221;28;20049;-73
2022/04/01 08:06:56;;;;;;;3.67;1.58;;;8.30;36.50;;;;;;5057532;28;20138;-72
2022/04/01 08:09:33;;;;;;;7.40;2.20;;;8.60;36.80;;;;;;5056777;28;20040;-72
2022/04/01 08:12:01;;;;;;;3.38;1.60;;;8.80;35.80;;;;;;5056045;28;20046;-72
2022/04/01 08:14:27;;;;;;;4.40;1.95;;;9.00;35.80;;;;;;5056038;28;20895;-73
2022/04/01 08:16:53;;;;;;;5.20;1.60;;;8.90;34.90;;;;;;5056301;28;20028;-72
2022/04/01 08:19:19;;;;;;;2.67;1.80;;;8.70;35.60;;;;;;5052924;28;20089;-71
2022/04/01 08:21:45;;;;;;;5.43;2.08;;;8.70;35.30;;;;;;5059779;28;20102;-72
2022/04/01 08:24:12;;;;;;;6.72;1.85;;;8.80;36.40;;;;;;5054041;28;20807;-72
2022/04/01 08:26:38;;;;;;;4.07;1.65;;;8.80;35.40;;;;;;5037704;28;20151;-72
2022/04/01 08:29:04;;;;;;;4.10;1.63;;;8.40;35.00;;;;;;5051149;28;20131;-73
2022/04/01 08:31:30;;;;;;;6.72;1.90;;;8.30;35.60;;;;;;5062216;28;20058;-72
2022/04/01 08:33:56;;;;;;;3.45;1.52;;;8.30;35.60;;;;;;5061575;28;20047;-72
2022/04/01 08:36:22;;;;;;;2.67;1.60;;;8.30;35.10;;;;;;5060207;28;20025;-72
2022/04/01 08:38:48;;;;;;;6.38;2.08;;;8.30;34.90;;;;;;5063704;28;20029;-72
2022/04/01 08:41:20;;;;;;;6.18;1.90;;;8.40;35.50;;;;;;5060652;28;20029;-72
2022/04/01 08:43:48;;;;;;;2.15;1.35;;;8.70;34.10;;;;;;5044884;28;20043;-74
2022/04/01 08:46:15;;;;;;;3.70;2.00;;;8.70;34.00;;;;;;5042946;28;20024;-71
2022/04/01 08:48:41;;;;;;;2.55;1.40;;;9.10;34.40;;;;;;5062022;28;20036;-72
2022/04/01 08:51:07;;;;;;;6.20;1.85;;;9.10;33.30;;;;;;5059315;28;20033;-73
2022/04/01 08:53:43;;;;;;;2.05;1.30;;;9.20;32.20;;;;;;5046902;28;20044;-69
2022/04/01 08:56:09;;;;;;;3.42;1.50;;;9.10;32.20;;;;;;5056267;28;20024;-72
2022/04/01 08:58:35;;;;;;;2.67;1.60;;;9.40;32.50;;;;;;5051309;28;20037;-72
2022/04/01 09:01:03;;;;;;;4.78;1.70;;;9.60;30.80;;;;;;5057530;28;20028;-70
2022/04/01 09:03:29;;;;;;;5.50;1.73;;;9.50;30.50;;;;;;5058442;28;21003;-71
2022/04/01 09:05:58;;;;;;;2.70;1.40;;;9.90;30.60;;;;;;5062281;28;20060;-71
2022/04/01 09:08:30;;;;;;;5.68;1.52;;;10.00;30.20;;;;;;5061733;28;20679;-71
2022/04/01 09:11:01;;;;;;;1.75;1.25;;;10.50;30.30;;;;;;5061258;28;20028;-70
2022/04/01 09:13:31;;;;;;;6.25;1.73;;;10.80;29.60;;;;;;5061113;28;20033;-70
2022/04/01 09:15:58;;;;;;;3.50;1.80;;;10.80;30.20;;;;;;5058844;28;20443;-70
2022/04/01 09:18:38;;;;;;;4.60;1.67;;;10.80;29.10;;;;;;5058793;28;20059;-69
2022/04/01 09:21:06;;;;;;;5.10;1.83;;;11.30;29.30;;;;;;5057183;28;20036;-71
2022/04/01 09:23:32;;;;;;;6.00;1.60;;;11.20;29.40;;;;;;5060220;28;20045;-69
2022/04/01 09:25:58;;;;;;;6.55;1.27;;;11.30;28.90;;;;;;5061270;28;20033;-70
2022/04/01 09:28:25;;;;;;;3.25;1.38;;;11.70;28.30;;;;;;5057616;28;20036;-69
2022/04/01 09:30:57;;;;;;;4.55;1.80;;;11.70;28.10;;;;;;5060466;28;20028;-70
2022/04/01 09:33:23;;;;;;;3.95;1.50;;;11.60;28.00;;;;;;5061631;28;20364;-70
2022/04/01 09:35:52;;;;;;;2.72;1.52;;;11.50;28.30;;;;;;5060918;28;20040;-70
2022/04/01 09:38:18;;;;;;;3.70;1.65;;;11.60;28.10;;;;;;5055489;28;20021;-71
2022/04/01 09:40:44;;;;;;;3.25;2.05;;;11.80;27.80;;;;;;5058290;28;20036;-70
2022/04/01 09:43:10;;;;;;;3.30;1.63;;;11.20;27.80;;;;;;5057463;28;20115;-69
2022/04/01 09:45:36;;;;;;;4.22;1.55;;;11.10;27.70;;;;;;5059234;28;20770;-70
2022/04/01 09:48:02;;;;;;;1.48;1.00;;;11.30;27.40;;;;;;5059473;28;20043;-69
2022/04/01 09:50:39;;;;;;;2.60;1.38;;;11.50;27.50;;;;;;5026198;28;20219;-69
2022/04/01 09:53:10;;;;;;;4.90;1.45;;;11.40;27.50;;;;;;5060994;28;20114;-70
2022/04/01 09:55:41;;;;;;;2.28;1.45;;;11.40;27.40;;;;;;5055686;28;20401;-70
2022/04/01 09:58:07;;;;;;;2.38;1.30;;;11.50;27.20;;;;;;5037952;28;20055;-70
2022/04/01 10:00:34;;;;;;;4.13;1.70;;;11.60;27.10;;;;;;5038990;28;20043;-69
2022/04/01 10:03:00;;;;;;;4.78;1.25;;;11.60;26.50;;;;;;5060325;28;20027;-69
2022/04/01 10:05:26;;;;;;;6.30;1.80;;;12.00;26.50;;;;;;5060808;28;20703;-69
2022/04/01 10:07:55;;;;;;;2.08;1.33;;;12.20;25.90;;;;;;5059535;28;20044;-70
2022/04/01 10:10:21;;;;;;;7.50;1.45;;;12.60;25.90;;;;;;5055034;28;20045;-70
2022/04/01 10:12:49;;;;;;;2.63;1.58;;;13.50;25.90;;;;;;5058742;28;20039;-69
2022/04/01 10:15:16;;;;;;;4.25;1.38;;;14.10;25.30;;;;;;5058774;28;20036;-69
2022/04/01 10:17:42;;;;;;;3.33;1.45;;;14.20;25.20;;;;;;5057544;28;20123;-70
2022/04/01 10:20:12;;;;;;;3.97;1.50;;;14.40;24.40;;;;;;5053696;28;20032;-70
2022/04/01 10:22:41;;;;;;;3.75;1.83;;;14.60;24.90;;;;;;5057051;28;20452;-70
2022/04/01 10:25:16;;;;;;;3.42;1.50;;;14.80;24.50;;;;;;5057360;28;20062;-70
2022/04/01 10:27:51;;;;;;;5.63;1.63;;;15.00;24.60;;;;;;5053269;28;20868;-71
2022/04/01 10:30:20;;;;;;;4.50;1.60;;;15.40;23.90;;;;;;5054041;28;20485;-70
2022/04/01 10:32:47;;;;;;;4.72;1.85;;;15.40;23.60;;;;;;5058660;28;20742;-69
2022/04/01 10:35:29;;;;;;;6.32;1.88;;;15.00;23.90;;;;;;5056396;28;20121;-69
2022/04/01 10:38:15;;;;;;;2.60;1.73;;;14.10;24.30;;;;;;5058023;28;20040;-70
2022/04/01 10:40:49;;;;;;;4.53;1.83;;;14.20;25.60;;;;;;5060703;28;20037;-70
2022/04/01 10:43:26;;;;;;;3.28;1.75;;;14.50;24.80;;;;;;5057584;28;20540;-69
2022/04/01 10:46:10;;;;;;;3.75;1.80;;;14.20;24.80;;;;;;5058967;28;20040;-72
2022/04/01 10:51:44;;;;;;;6.20;1.50;;;13.60;24.10;;;;;;5056334;28;20488;-67
2022/04/01 10:54:12;;;;;;;7.10;1.92;;;14.40;24.40;;;;;;5056961;28;20054;-72
2022/04/01 10:56:39;;;;;;;2.63;1.83;;;14.40;24.00;;;;;;5060141;28;20036;-70
2022/04/01 10:59:07;;;;;;;4.68;1.63;;;14.50;24.00;;;;;;5038154;28;20385;-71
2022/04/01 11:01:35;;;;;;;3.50;1.80;;;15.40;24.30;;;;;;5053888;28;20481;-72
2022/04/01 11:04:13;;;;;;;5.75;2.13;;;16.10;23.30;;;;;;5042270;28;20037;-72
2022/04/01 11:06:52;;;;;;;4.18;1.58;;;15.60;23.80;;;;;;5057246;28;20945;-72
2022/04/01 11:09:34;;;;;;;3.38;1.67;;;15.50;24.00;;;;;;5059666;28;20028;-72
2022/04/01 11:12:15;;;;;;;2.47;1.83;;;15.20;23.50;;;;;;5059093;28;20508;-72
2022/04/01 11:14:54;;;;;;;3.80;1.67;;;14.80;24.40;;;;;;5058345;28;20047;-72
2022/04/01 11:17:24;;;;;;;3.70;1.60;;;14.30;24.10;;;;;;5056842;28;20039;-69
2022/04/01 11:19:59;;;;;;;3.28;1.60;;;13.90;24.40;;;;;;5057052;28;20039;-72
2022/04/01 11:22:41;;;;;;;4.63;1.80;;;13.80;25.20;;;;;;5059607;28;20044;-72
2022/04/01 11:25:12;;;;;;;3.05;1.90;;;13.90;25.90;;;;;;5055859;28;20479;-68
2022/04/01 11:27:49;;;;;;;5.05;1.67;;;13.60;25.10;;;;;;5057465;28;20151;-71
2022/04/01 11:30:16;;;;;;;5.32;1.80;;;13.30;25.00;;;;;;5057420;28;20526;-70
2022/04/01 11:32:46;;;;;;;2.60;1.42;;;13.10;25.40;;;;;;5057979;28;20142;-71
2022/04/01 11:35:13;;;;;;;3.38;1.40;;;13.00;26.10;;;;;;5055615;28;20052;-71
2022/04/01 11:37:46;;;;;;;4.47;1.83;;;13.20;26.50;;;;;;5057429;28;20475;-70
2022/04/01 11:40:17;;;;;;;2.88;1.27;;;13.40;25.60;;;;;;5057759;28;20524;-68
2022/04/01 11:43:02;;;;;;;2.45;1.70;;;13.60;26.40;;;;;;5055716;28;20035;-70
2022/04/01 11:45:35;;;;;;;5.38;2.10;;;13.80;25.30;;;;;;5054363;28;20060;-70
2022/04/01 11:48:17;;;;;;;3.92;1.60;;;13.60;25.10;;;;;;5053248;28;20044;-69
2022/04/01 11:50:48;;;;;;;5.97;1.58;;;13.50;25.30;;;;;;5057414;28;20036;-67
2022/04/01 11:53:22;;;;;;;1.80;1.25;;;13.40;25.30;;;;;;5056264;28;20044;-69
2022/04/01 11:55:49;;;;;;;3.72;1.88;;;13.40;25.40;;;;;;5057266;28;20564;-70
2022/04/01 11:58:15;;;;;;;3.60;1.60;;;12.80;24.80;;;;;;5059063;28;20031;-69
2022/04/01 12:00:41;;;;;;;4.95;1.67;;;12.70;25.80;;;;;;5044821;28;20029;-70
2022/04/01 12:03:09;;;;;;;7.93;1.75;;;12.70;25.30;;;;;;5058977;28;20051;-70
2022/04/01 12:05:35;;;;;;;4.28;1.60;;;12.80;25.30;;;;;;5055379;28;20037;-71
2022/04/01 12:10:55;;;;;;;3.67;1.45;;;13.10;25.40;;;;;;5061243;28;20037;-68
2022/04/01 12:13:22;;;;;;;3.10;1.70;;;13.30;25.20;;;;;;5060376;28;20044;-69
2022/04/01 12:15:49;;;;;;;3.05;1.50;;;12.90;24.70;;;;;;5061347;28;20036;-68
2022/04/01 12:18:16;;;;;;;6.05;1.70;;;12.80;24.80;;;;;;5058882;28;20036;-69
2022/04/01 12:20:47;;;;;;;6.50;1.98;;;13.00;24.90;;;;;;5063221;28;20059;-69
2022/04/01 12:23:15;;;;;;;5.68;1.60;;;13.00;25.00;;;;;;5057692;28;20091;-69
2022/04/01 12:25:42;;;;;;;3.40;1.85;;;12.80;24.90;;;;;;5062757;28;20029;-69
2022/04/01 12:28:11;;;;;;;2.42;1.52;;;12.80;25.60;;;;;;5059701;28;20533;-68
2022/04/01 12:30:48;;;;;;;3.35;1.60;;;12.70;24.40;;;;;;5062003;28;20579;-68
2022/04/01 12:33:20;;;;;;;6.20;1.40;;;12.80;24.60;;;;;;5058180;28;20138;-68
2022/04/01 12:36:00;;;;;;;6.55;1.60;;;12.40;24.50;;;;;;5059117;28;20064;-69
2022/04/01 12:38:27;;;;;;;6.30;1.65;;;12.50;25.10;;;;;;5057443;28;20033;-69
2022/04/01 12:41:02;;;;;;;2.08;1.45;;;12.60;25.60;;;;;;5058171;28;20089;-69
2022/04/01 12:43:33;;;;;;;3.03;1.73;;;12.70;25.10;;;;;;5058957;28;20036;-68
2022/04/01 12:46:06;;;;;;;8.32;1.40;;;12.70;25.60;;;;;;5061024;28;20556;-67
2022/04/01 12:48:52;;;;;;;2.83;1.30;;;12.60;25.60;;;;;;5059476;28;20044;-68
2022/04/01 12:51:28;;;;;;;3.95;1.27;;;12.60;26.00;;;;;;5061105;28;20095;-68
2022/04/01 12:53:55;;;;;;;;;;;12.60;25.80;;;;;;5059605;28;20082;-70
2022/04/01 12:56:22;;;;;;;;;;;12.60;26.20;;;;;;5042415;28;20703;-67
2022/04/01 12:58:54;;;;;;;6.07;1.40;;;12.70;26.10;;;;;;5061162;28;19962;-67
2022/04/01 13:01:23;;;;;;;3.70;1.52;;;12.50;25.70;;;;;;5058309;28;20032;-69
2022/04/01 13:03:49;;;;;;;2.65;1.52;;;12.20;26.70;;;;;;5044224;28;20451;-70
2022/04/01 13:06:16;;;;;;;3.17;1.42;;;12.20;26.50;;;;;;5060992;28;20089;-69
2022/04/01 13:08:42;;;;;;;2.65;1.20;;;12.30;25.60;;;;;;5057874;28;20082;-69
2022/04/01 13:11:15;;;;;;;3.08;1.75;;;12.30;25.50;;;;;;5056449;28;20566;-69
2022/04/01 13:13:41;;;;;;;6.93;1.75;;;12.40;25.20;;;;;;5054853;28;20032;-69
2022/04/01 13:16:08;;;;;;;5.78;1.65;;;12.10;25.20;;;;;;5052683;28;20389;-68
2022/04/01 13:18:34;;;;;;;4.80;1.40;;;12.10;25.90;;;;;;5054442;28;20106;-69
2022/04/01 13:21:00;;;;;;;5.28;1.65;;;12.10;25.90;;;;;;5058909;28;20032;-68
2022/04/01 13:23:28;;;;;;;2.13;1.38;;;12.10;26.00;;;;;;5057207;28;20552;-70
2022/04/01 13:25:54;;;;;;;4.57;1.55;;;12.10;26.70;;;;;;5054446;28;20033;-69
2022/04/01 13:28:20;;;;;;;6.68;1.80;;;12.10;26.70;;;;;;5059985;28;20121;-69